createdAt,value
2022-11-27T00:01:19.281Z,4.25
2022-11-27T00:03:46.543Z,3.90
2022-11-27T00:06:15.784Z,3.78
2022-11-27T00:08:43.819Z,3.80
2022-11-27T00:11:13.146Z,3.53
2022-11-27T00:13:40.264Z,3.67
2022-11-27T00:16:07.843Z,3.90
2022-11-27T00:18:35.215Z,3.78
2022-11-27T00:21:07.016Z,3.70
2022-11-27T00:23:34.911Z,3.90
2022-11-27T00:26:02.030Z,4.20
2022-11-27T00:28:28.959Z,3.97
2022-11-27T00:31:04.273Z,3.97
2022-11-27T00:33:30.917Z,4.10
2022-11-27T00:36:05.629Z,3.80
2022-11-27T00:38:37.387Z,4.05
2022-11-27T00:41:19.569Z,3.92
2022-11-27T00:43:46.499Z,3.75
2022-11-27T00:46:14.577Z,3.63
2022-11-27T00:48:42.331Z,3.60
2022-11-27T00:51:10.641Z,3.55
2022-11-27T00:53:37.589Z,3.80
2022-11-27T00:56:04.610Z,3.08
2022-11-27T00:58:31.481Z,3.40
2022-11-27T01:01:03.997Z,3.30
2022-11-27T01:03:32.010Z,3.00
2022-11-27T01:06:05.834Z,2.97
2022-11-27T01:08:33.387Z,2.90
2022-11-27T01:11:00.945Z,2.80
2022-11-27T01:13:30.506Z,2.70
2022-11-27T01:16:01.362Z,3.00
2022-11-27T01:18:28.511Z,2.80
2022-11-27T01:20:55.747Z,2.80
2022-11-27T01:23:23.532Z,2.90
2022-11-27T01:25:50.263Z,2.92
2022-11-27T01:28:17.159Z,3.03
2022-11-27T01:30:43.956Z,3.10
2022-11-27T01:33:11.043Z,3.15
2022-11-27T01:35:37.630Z,3.65
2022-11-27T01:38:04.449Z,3.78
2022-11-27T01:40:31.149Z,4.35
2022-11-27T01:42:57.791Z,3.92
2022-11-27T01:45:24.535Z,3.80
2022-11-27T01:48:00.926Z,3.92
2022-11-27T01:50:35.935Z,3.72
2022-11-27T01:53:09.564Z,4.15
2022-11-27T01:55:40.715Z,3.65
2022-11-27T01:58:13.924Z,3.85
2022-11-27T02:00:41.247Z,3.95
2022-11-27T02:03:08.007Z,3.47
2022-11-27T02:05:34.824Z,3.60
2022-11-27T02:08:09.800Z,3.85
2022-11-27T02:11:13.190Z,3.38
2022-11-27T02:13:49.025Z,3.03
2022-11-27T02:16:45.859Z,2.92
2022-11-27T02:19:24.589Z,2.88
2022-11-27T02:21:56.263Z,2.88
2022-11-27T02:24:55.371Z,2.60
2022-11-27T02:27:33.570Z,2.60
2022-11-27T02:30:02.206Z,2.53
2022-11-27T02:32:40.819Z,2.60
2022-11-27T02:35:41.764Z,2.70
2022-11-27T02:38:28.115Z,2.67
2022-11-27T02:41:25.434Z,2.85
2022-11-27T02:43:53.546Z,2.70
2022-11-27T02:46:21.235Z,2.95
2022-11-27T02:49:01.872Z,2.97
2022-11-27T02:51:44.683Z,2.75
2022-11-27T02:54:17.610Z,2.90
2022-11-27T02:56:48.155Z,2.92
2022-11-27T03:01:48.284Z,2.80
2022-11-27T03:04:20.253Z,2.78
2022-11-27T03:06:58.026Z,2.65
2022-11-27T03:09:41.971Z,2.75
2022-11-27T03:12:11.016Z,2.90
2022-11-27T03:14:40.902Z,2.80
2022-11-27T03:17:30.574Z,2.70
2022-11-27T03:20:08.454Z,2.80
2022-11-27T03:22:35.131Z,2.58
2022-11-27T03:25:02.142Z,2.70
2022-11-27T03:27:44.967Z,2.55
2022-11-27T03:30:12.866Z,2.50
2022-11-27T03:32:39.628Z,2.80
2022-11-27T03:35:09.825Z,2.33
2022-11-27T03:37:37.111Z,2.63
2022-11-27T03:40:05.841Z,2.75
2022-11-27T03:42:47.685Z,3.00
2022-11-27T03:45:23.241Z,2.50
2022-11-27T03:48:05.198Z,2.35
2022-11-27T03:51:01.073Z,2.70
2022-11-27T03:53:33.500Z,3.00
2022-11-27T03:56:10.552Z,2.75
2022-11-27T03:59:29.702Z,2.80
2022-11-27T04:01:56.435Z,2.70
2022-11-27T04:04:23.146Z,3.03
2022-11-27T04:06:49.863Z,2.83
2022-11-27T04:09:16.651Z,2.97
2022-11-27T04:11:43.410Z,2.88
2022-11-27T04:14:09.946Z,2.80
2022-11-27T04:16:36.674Z,2.80
2022-11-27T04:19:03.392Z,2.88
2022-11-27T04:21:30.004Z,3.03
2022-11-27T04:23:56.656Z,2.60
2022-11-27T04:26:24.611Z,2.72
2022-11-27T04:28:51.244Z,2.83
2022-11-27T04:31:18.293Z,3.00
2022-11-27T04:33:45.004Z,2.58
2022-11-27T04:36:11.690Z,2.70
2022-11-27T04:38:38.283Z,2.90
2022-11-27T04:41:05.042Z,2.83
2022-11-27T04:43:31.660Z,2.50
2022-11-27T04:45:58.394Z,2.72
2022-11-27T04:48:25.095Z,2.90
2022-11-27T04:50:54.047Z,2.67
2022-11-27T04:53:20.689Z,2.88
2022-11-27T04:55:47.380Z,2.80
2022-11-27T04:58:13.930Z,2.60
2022-11-27T05:00:40.566Z,2.60
2022-11-27T05:03:07.982Z,2.60
2022-11-27T05:05:34.758Z,2.60
2022-11-27T05:08:01.667Z,2.50
2022-11-27T05:10:28.451Z,2.53
2022-11-27T05:12:55.148Z,2.45
2022-11-27T05:15:21.732Z,2.50
2022-11-27T05:17:48.425Z,2.38
2022-11-27T05:20:15.093Z,2.40
2022-11-27T05:22:41.742Z,2.60
2022-11-27T05:25:08.852Z,2.65
2022-11-27T05:27:35.476Z,2.22
2022-11-27T05:30:02.182Z,2.40
2022-11-27T05:32:28.880Z,2.45
2022-11-27T05:34:55.466Z,2.30
2022-11-27T05:37:22.054Z,2.35
2022-11-27T05:39:48.730Z,2.47
2022-11-27T05:42:15.371Z,2.30
2022-11-27T05:44:42.362Z,2.03
2022-11-27T05:47:09.315Z,2.20
2022-11-27T05:49:36.829Z,2.60
2022-11-27T05:52:03.544Z,2.60
2022-11-27T05:54:30.321Z,2.20
2022-11-27T05:56:56.881Z,2.20
2022-11-27T05:59:23.470Z,2.35
2022-11-27T06:01:50.316Z,2.40
2022-11-27T06:04:17.049Z,2.50
2022-11-27T06:06:43.766Z,2.35
2022-11-27T06:09:13.127Z,2.22
2022-11-27T06:11:40.814Z,2.20
2022-11-27T06:14:11.269Z,2.53
2022-11-27T06:19:04.999Z,2.17
2022-11-27T06:21:31.592Z,2.20
2022-11-27T06:23:58.482Z,2.13
2022-11-27T06:26:27.878Z,1.90
2022-11-27T06:28:56.242Z,1.95
2022-11-27T06:31:26.372Z,2.22
2022-11-27T06:33:54.819Z,1.95
2022-11-27T06:36:27.741Z,2.00
2022-11-27T06:38:54.430Z,1.95
2022-11-27T06:41:24.125Z,2.08
2022-11-27T06:43:51.138Z,2.30
2022-11-27T06:46:19.936Z,2.28
2022-11-27T06:48:48.718Z,2.17
2022-11-27T06:51:35.024Z,1.98
2022-11-27T06:54:02.643Z,2.22
2022-11-27T06:56:31.281Z,2.40
2022-11-27T06:59:00.201Z,2.22
2022-11-27T07:01:29.466Z,2.20
2022-11-27T07:03:56.573Z,2.00
2022-11-27T07:06:24.987Z,2.40
2022-11-27T07:08:52.359Z,2.30
2022-11-27T07:11:24.858Z,2.40
2022-11-27T07:13:52.239Z,2.20
2022-11-27T07:16:19.421Z,2.38
2022-11-27T07:18:57.774Z,2.88
2022-11-27T07:21:25.089Z,2.63
2022-11-27T07:23:52.156Z,2.53
2022-11-27T07:26:21.601Z,2.78
2022-11-27T07:28:48.731Z,2.70
2022-11-27T07:31:23.842Z,2.45
2022-11-27T07:33:54.196Z,2.83
2022-11-27T07:36:27.257Z,2.90
2022-11-27T07:38:54.661Z,2.92
2022-11-27T07:41:22.000Z,2.90
2022-11-27T07:43:48.922Z,2.80
2022-11-27T07:46:21.674Z,2.90
2022-11-27T07:48:48.877Z,3.30
2022-11-27T07:51:18.940Z,3.13
2022-11-27T07:53:46.090Z,3.08
2022-11-27T07:56:15.228Z,2.92
2022-11-27T07:58:42.011Z,3.10
2022-11-27T08:01:10.517Z,2.83
2022-11-27T08:03:37.860Z,2.80
2022-11-27T08:06:05.303Z,3.15
2022-11-27T08:08:33.249Z,3.03
2022-11-27T08:10:59.895Z,3.08
2022-11-27T08:13:26.586Z,3.05
2022-11-27T08:15:53.238Z,3.17
2022-11-27T08:18:19.835Z,3.00
2022-11-27T08:20:46.536Z,3.17
2022-11-27T08:23:13.205Z,3.17
2022-11-27T08:25:39.815Z,3.03
2022-11-27T08:28:06.558Z,2.97
2022-11-27T08:30:33.103Z,3.03
2022-11-27T08:32:59.787Z,3.33
2022-11-27T08:35:27.738Z,2.83
2022-11-27T08:37:54.640Z,3.15
2022-11-27T08:40:21.273Z,3.00
2022-11-27T08:42:47.876Z,2.97
2022-11-27T08:45:14.774Z,3.50
2022-11-27T08:47:43.415Z,3.10
2022-11-27T08:50:10.539Z,2.95
2022-11-27T08:52:37.307Z,3.30
2022-11-27T08:55:04.779Z,3.05
2022-11-27T08:57:31.627Z,3.22
2022-11-27T08:59:58.238Z,3.13
2022-11-27T09:02:24.866Z,3.28
2022-11-27T09:04:51.519Z,3.47
2022-11-27T09:07:18.184Z,3.50
2022-11-27T09:09:44.963Z,3.50
2022-11-27T09:12:12.459Z,3.38
2022-11-27T09:14:39.701Z,3.20
2022-11-27T09:17:07.033Z,3.53
2022-11-27T09:19:33.777Z,3.50
2022-11-27T09:22:00.606Z,3.80
2022-11-27T09:24:27.343Z,3.90
2022-11-27T09:26:54.673Z,4.28
2022-11-27T09:29:21.663Z,3.30
2022-11-27T09:31:48.319Z,3.42
2022-11-27T09:34:15.164Z,3.60
2022-11-27T09:36:41.786Z,3.38
2022-11-27T09:39:08.362Z,3.60
2022-11-27T09:41:46.939Z,3.33
2022-11-27T09:44:35.650Z,3.53
2022-11-27T09:47:28.529Z,3.72
2022-11-27T09:50:00.838Z,3.75
2022-11-27T09:52:37.177Z,3.80
2022-11-27T09:55:24.991Z,3.58
2022-11-27T09:58:05.474Z,3.80
2022-11-27T10:00:32.998Z,3.72
2022-11-27T10:03:00.146Z,3.80
2022-11-27T10:05:43.277Z,3.75
2022-11-27T10:08:28.397Z,3.72
2022-11-27T10:11:15.923Z,3.92
2022-11-27T10:14:13.606Z,3.80
2022-11-27T10:16:59.715Z,3.85
2022-11-27T10:19:55.522Z,4.20
2022-11-27T10:22:36.178Z,3.88
2022-11-27T10:25:20.917Z,4.18
2022-11-27T10:28:06.198Z,4.30
2022-11-27T10:30:38.872Z,4.50
2022-11-27T10:33:17.439Z,5.38
2022-11-27T10:35:48.191Z,4.65
2022-11-27T10:38:20.672Z,4.88
2022-11-27T10:40:59.222Z,4.78
2022-11-27T10:43:25.917Z,4.70
2022-11-27T10:46:04.889Z,4.90
2022-11-27T10:48:33.278Z,4.63
2022-11-27T10:51:00.496Z,4.80
2022-11-27T10:53:36.127Z,4.80
2022-11-27T10:56:32.120Z,4.53
2022-11-27T10:59:06.613Z,4.43
2022-11-27T11:01:48.514Z,4.88
2022-11-27T11:04:37.412Z,4.70
2022-11-27T11:07:26.596Z,4.63
2022-11-27T11:09:54.775Z,4.38
2022-11-27T11:12:22.968Z,4.68
2022-11-27T11:14:59.548Z,4.78
2022-11-27T11:17:38.349Z,4.60
2022-11-27T11:20:34.092Z,4.55
2022-11-27T11:23:00.794Z,4.65
2022-11-27T11:25:27.483Z,4.32
2022-11-27T11:27:54.166Z,4.30
2022-11-27T11:30:24.195Z,4.25
2022-11-27T11:32:58.186Z,4.32
2022-11-27T11:35:34.910Z,4.20
2022-11-27T11:38:04.992Z,4.68
2022-11-27T11:40:34.847Z,4.53
2022-11-27T11:43:10.174Z,4.43
2022-11-27T11:45:46.749Z,4.40
2022-11-27T11:48:31.307Z,4.32
2022-11-27T11:51:04.660Z,4.50
2022-11-27T11:53:36.527Z,4.72
2022-11-27T11:56:21.858Z,4.75
2022-11-27T11:58:58.920Z,4.60
2022-11-27T12:01:40.590Z,4.40
2022-11-27T12:04:38.035Z,4.60
2022-11-27T12:07:39.236Z,4.45
2022-11-27T12:10:29.924Z,4.70
2022-11-27T12:13:25.964Z,4.28
2022-11-27T12:16:34.905Z,4.53
2022-11-27T12:19:27.740Z,4.40
2022-11-27T12:22:19.205Z,4.70
2022-11-27T12:25:10.061Z,4.30
2022-11-27T12:27:48.382Z,4.60
2022-11-27T12:30:22.045Z,4.20
2022-11-27T12:33:22.917Z,4.70
2022-11-27T12:36:07.517Z,4.70
2022-11-27T12:39:15.722Z,4.32
2022-11-27T12:41:51.133Z,4.63
2022-11-27T12:44:27.573Z,4.78
2022-11-27T12:47:22.741Z,4.45
2022-11-27T12:49:57.419Z,4.85
2022-11-27T12:52:43.690Z,4.82
2022-11-27T12:55:17.410Z,5.07
2022-11-27T12:57:49.587Z,4.40
2022-11-27T13:00:19.939Z,4.75
2022-11-27T13:03:16.530Z,4.82
2022-11-27T13:06:10.150Z,4.55
2022-11-27T13:08:54.391Z,4.03
2022-11-27T13:11:27.964Z,5.07
2022-11-27T13:14:03.421Z,4.50
2022-11-27T13:16:41.052Z,4.82
2022-11-27T13:19:28.102Z,4.70
2022-11-27T13:21:57.085Z,4.45
2022-11-27T13:24:25.846Z,4.32
2022-11-27T13:27:17.582Z,4.40
2022-11-27T13:29:50.778Z,4.35
2022-11-27T13:32:24.029Z,4.75
2022-11-27T13:34:53.114Z,4.00
2022-11-27T13:37:36.671Z,4.45
2022-11-27T13:40:12.671Z,4.78
2022-11-27T13:42:44.737Z,4.47
2022-11-27T13:45:21.869Z,4.22
2022-11-27T13:47:50.109Z,4.20
2022-11-27T13:50:20.672Z,4.40
2022-11-27T13:55:32.561Z,4.57
2022-11-27T13:58:01.249Z,4.00
2022-11-27T14:00:40.185Z,3.97
2022-11-27T14:03:13.016Z,4.18
2022-11-27T14:05:44.523Z,4.18
2022-11-27T14:08:33.552Z,4.13
2022-11-27T14:11:07.304Z,4.50
2022-11-27T14:13:51.961Z,4.18
2022-11-27T14:16:26.556Z,4.00
2022-11-27T14:18:56.602Z,4.40
2022-11-27T14:21:40.853Z,4.00
2022-11-27T14:24:33.107Z,3.97
2022-11-27T14:27:00.346Z,4.20
2022-11-27T14:29:30.437Z,4.15
2022-11-27T14:31:59.544Z,4.00
2022-11-27T14:34:30.851Z,3.70
2022-11-27T14:36:58.468Z,3.67
2022-11-27T14:39:29.384Z,3.53
2022-11-27T14:41:57.554Z,3.63
2022-11-27T14:44:24.299Z,3.60
2022-11-27T14:46:52.044Z,3.80
2022-11-27T14:49:20.462Z,3.83
2022-11-27T14:51:48.683Z,3.90
2022-11-27T14:54:32.636Z,3.70
2022-11-27T14:56:59.400Z,4.30
2022-11-27T14:59:26.602Z,4.10
2022-11-27T15:02:11.598Z,3.97
2022-11-27T15:04:44.221Z,3.97
2022-11-27T15:07:17.508Z,4.00
2022-11-27T15:09:47.725Z,4.10
2022-11-27T15:14:47.026Z,3.55
2022-11-27T15:17:17.363Z,3.70
2022-11-27T15:19:44.216Z,3.60
2022-11-27T15:22:17.491Z,3.10
2022-11-27T15:24:44.213Z,3.28
2022-11-27T15:27:20.752Z,3.10
2022-11-27T15:29:50.163Z,3.22
2022-11-27T15:32:23.269Z,3.70
2022-11-27T15:34:51.968Z,3.63
2022-11-27T15:37:27.360Z,3.80
2022-11-27T15:39:56.259Z,3.28
2022-11-27T15:42:24.047Z,3.40
2022-11-27T15:44:54.767Z,3.30
2022-11-27T15:47:31.489Z,3.38
2022-11-27T15:50:01.410Z,3.05
2022-11-27T15:52:28.371Z,3.20
2022-11-27T15:54:56.615Z,3.20
2022-11-27T15:57:24.326Z,3.50
2022-11-27T15:59:50.952Z,3.72
2022-11-27T16:02:18.815Z,3.70
2022-11-27T16:04:45.571Z,3.88
2022-11-27T16:07:12.419Z,3.83
2022-11-27T16:09:39.804Z,3.60
2022-11-27T16:12:06.815Z,3.80
2022-11-27T16:14:33.567Z,3.65
2022-11-27T16:17:01.410Z,3.85
2022-11-27T16:19:28.342Z,3.97
2022-11-27T16:21:55.189Z,3.90
2022-11-27T16:24:21.852Z,3.70
2022-11-27T16:26:48.506Z,4.32
2022-11-27T16:29:15.167Z,4.00
2022-11-27T16:31:42.197Z,4.05
2022-11-27T16:34:09.025Z,3.95
2022-11-27T16:36:41.566Z,4.57
2022-11-27T16:39:08.350Z,4.32
2022-11-27T16:41:36.218Z,4.30
2022-11-27T16:44:10.668Z,4.32
2022-11-27T16:46:38.938Z,4.25
2022-11-27T16:49:06.660Z,4.07
2022-11-27T16:51:35.148Z,4.28
2022-11-27T16:54:04.609Z,4.05
2022-11-27T16:56:34.593Z,4.30
2022-11-27T16:59:11.087Z,3.58
2022-11-27T17:01:42.910Z,4.28
2022-11-27T17:04:15.939Z,4.25
2022-11-27T17:06:42.885Z,3.85
2022-11-27T17:09:10.049Z,3.90
2022-11-27T17:11:41.199Z,4.10
2022-11-27T17:14:09.530Z,3.85
2022-11-27T17:16:38.839Z,4.10
2022-11-27T17:19:05.599Z,4.00
2022-11-27T17:21:34.538Z,4.28
2022-11-27T17:24:15.259Z,3.88
2022-11-27T17:26:45.460Z,4.40
2022-11-27T17:29:13.993Z,4.72
2022-11-27T17:31:42.365Z,4.57
2022-11-27T17:34:12.590Z,4.60
2022-11-27T17:36:43.257Z,4.70
2022-11-27T17:39:16.409Z,4.18
2022-11-27T17:41:45.013Z,3.88
2022-11-27T17:44:12.033Z,4.30
2022-11-27T17:46:40.045Z,4.28
2022-11-27T17:49:07.607Z,4.03
2022-11-27T17:51:36.276Z,4.70
2022-11-27T17:54:05.321Z,4.35
2022-11-27T17:56:33.589Z,4.15
2022-11-27T17:59:00.901Z,4.45
2022-11-27T18:01:30.833Z,4.45
2022-11-27T18:04:01.127Z,4.77
2022-11-27T18:06:30.680Z,5.07
2022-11-27T18:08:58.796Z,5.03
2022-11-27T18:11:29.075Z,5.10
2022-11-27T18:13:58.575Z,4.63
2022-11-27T18:16:31.720Z,4.70
2022-11-27T18:19:04.043Z,4.10
2022-11-27T18:21:31.093Z,3.95
2022-11-27T18:29:33.798Z,4.07
2022-11-27T18:32:00.535Z,3.97
2022-11-27T18:34:27.282Z,4.05
2022-11-27T18:36:57.266Z,4.07
2022-11-27T18:39:24.211Z,3.97
2022-11-27T18:41:51.275Z,3.70
2022-11-27T18:44:18.278Z,3.60
2022-11-27T18:46:45.306Z,4.00
2022-11-27T18:49:13.266Z,4.00
2022-11-27T18:51:40.228Z,4.30
2022-11-27T18:54:08.142Z,4.25
2022-11-27T18:56:39.216Z,3.90
2022-11-27T18:59:06.974Z,4.60
2022-11-27T19:01:41.470Z,4.55
2022-11-27T19:04:08.391Z,4.88
2022-11-27T19:06:37.210Z,4.88
2022-11-27T19:09:05.135Z,4.72
2022-11-27T19:11:35.418Z,5.30
2022-11-27T19:14:04.004Z,4.75
2022-11-27T19:16:36.325Z,5.13
2022-11-27T19:19:04.838Z,4.63
2022-11-27T19:21:34.968Z,4.60
2022-11-27T19:24:04.289Z,4.45
2022-11-27T19:26:34.267Z,4.80
2022-11-27T19:29:03.606Z,4.88
2022-11-27T19:31:32.178Z,4.93
2022-11-27T19:34:00.849Z,4.78
2022-11-27T19:36:30.515Z,4.82
2022-11-27T19:39:00.717Z,4.77
2022-11-27T19:41:29.267Z,5.03
2022-11-27T19:44:12.105Z,4.60
2022-11-27T19:46:39.637Z,4.10
2022-11-27T19:49:12.907Z,4.60
2022-11-27T19:51:40.317Z,5.18
2022-11-27T19:54:10.808Z,4.50
2022-11-27T19:56:43.371Z,4.55
2022-11-27T19:59:12.308Z,4.80
2022-11-27T20:01:40.874Z,4.45
2022-11-27T20:04:10.110Z,4.90
2022-11-27T20:06:37.454Z,5.10
2022-11-27T20:09:06.101Z,4.88
2022-11-27T20:11:35.430Z,5.15
2022-11-27T20:14:05.091Z,4.90
2022-11-27T20:16:33.702Z,5.10
2022-11-27T20:19:02.317Z,5.05
2022-11-27T20:21:29.263Z,5.38
2022-11-27T20:23:57.721Z,5.43
2022-11-27T20:26:28.186Z,5.22
2022-11-27T20:28:55.169Z,4.90
2022-11-27T20:31:24.924Z,5.30
2022-11-27T20:33:54.304Z,5.20
2022-11-27T20:36:22.301Z,5.20
2022-11-27T20:38:50.754Z,5.00
2022-11-27T20:41:19.848Z,5.20
2022-11-27T20:43:50.518Z,4.90
2022-11-27T20:46:18.223Z,4.90
2022-11-27T20:48:46.567Z,4.80
2022-11-27T20:51:15.817Z,5.18
2022-11-27T20:53:44.386Z,4.75
2022-11-27T20:56:13.247Z,5.00
2022-11-27T20:58:41.653Z,5.10
2022-11-27T21:01:19.588Z,4.75
2022-11-27T21:03:47.835Z,5.10
2022-11-27T21:06:15.613Z,5.07
2022-11-27T21:08:42.627Z,4.88
2022-11-27T21:11:13.870Z,4.95
2022-11-27T21:13:40.920Z,4.57
2022-11-27T21:16:13.476Z,4.75
2022-11-27T21:18:40.325Z,4.88
2022-11-27T21:21:12.992Z,5.20
2022-11-27T21:23:41.627Z,4.97
2022-11-27T21:26:09.630Z,4.88
2022-11-27T21:28:36.827Z,4.90
2022-11-27T21:31:09.911Z,4.72
2022-11-27T21:33:37.628Z,4.97
2022-11-27T21:36:05.223Z,5.05
2022-11-27T21:38:32.722Z,4.90
2022-11-27T21:40:59.357Z,4.43
2022-11-27T21:43:26.041Z,4.43
2022-11-27T21:45:52.873Z,4.68
2022-11-27T21:48:20.655Z,4.30
2022-11-27T21:50:47.318Z,4.82
2022-11-27T21:53:14.013Z,4.05
2022-11-27T21:55:44.220Z,4.18
2022-11-27T21:58:10.922Z,4.20
2022-11-27T22:00:37.809Z,4.30
2022-11-27T22:03:04.902Z,4.50
2022-11-27T22:05:31.582Z,4.13
2022-11-27T22:07:58.246Z,4.07
2022-11-27T22:10:24.919Z,4.20
2022-11-27T22:12:51.733Z,4.10
2022-11-27T22:15:18.582Z,4.05
2022-11-27T22:17:45.390Z,4.20
2022-11-27T22:20:13.831Z,4.32
2022-11-27T22:22:41.235Z,4.32
2022-11-27T22:25:11.005Z,4.68
2022-11-27T22:27:37.737Z,4.60
2022-11-27T22:30:05.039Z,4.38
2022-11-27T22:32:31.667Z,4.05
2022-11-27T22:34:58.338Z,4.80
2022-11-27T22:37:25.181Z,4.07
2022-11-27T22:39:51.873Z,4.32
2022-11-27T22:42:18.505Z,4.10
2022-11-27T22:44:45.278Z,4.20
2022-11-27T22:47:12.012Z,4.05
2022-11-27T22:49:38.813Z,4.40
2022-11-27T22:52:05.558Z,4.50
2022-11-27T22:54:32.321Z,4.30
2022-11-27T22:56:59.863Z,4.10
2022-11-27T22:59:34.683Z,4.38
2022-11-27T23:02:05.075Z,4.07
2022-11-27T23:04:32.745Z,4.60
2022-11-27T23:06:59.971Z,4.03
2022-11-27T23:09:27.591Z,3.45
2022-11-27T23:11:54.274Z,3.47
2022-11-27T23:14:20.904Z,3.80
2022-11-27T23:16:47.715Z,3.60
2022-11-27T23:19:14.803Z,3.55
2022-11-27T23:21:41.802Z,3.70
2022-11-27T23:24:12.841Z,3.60
2022-11-27T23:26:39.558Z,3.45
2022-11-27T23:29:06.147Z,3.65
2022-11-27T23:31:37.076Z,3.53
2022-11-27T23:34:10.337Z,3.92
2022-11-27T23:36:36.992Z,3.85
2022-11-27T23:39:05.632Z,3.72
2022-11-27T23:41:32.551Z,3.50
2022-11-27T23:43:59.590Z,3.85
2022-11-27T23:46:28.323Z,3.90
2022-11-27T23:48:57.030Z,3.42
2022-11-27T23:51:26.526Z,3.58
2022-11-27T23:53:54.018Z,3.57
2022-11-27T23:56:26.734Z,3.78
2022-11-27T23:58:57.086Z,3.50
